Time;durP1;ratioP1;P1;durP2;ratioP2;P2;SDS_P1;SDS_P2;PMS_P1;PMS_P2;Temp;Humidity;BMP_temperature;BMP_pressure;BME280_temperature;BME280_humidity;BME280_pressure;Samples;Min_cycle;Max_cycle;Signal;HPM_P1;HPM_P2
2021/08/17 00:00:32;;;;;;;9.30;4.00;;;12.60;1.00;;;;;;5073865;28;20409;-78
2021/08/17 00:03:20;;;;;;;7.40;3.70;;;12.60;1.00;;;;;;5075626;28;20446;-78
2021/08/17 00:05:51;;;;;;;8.63;4.07;;;12.50;1.00;;;;;;5075491;28;20413;-78
2021/08/17 00:08:37;;;;;;;9.63;3.87;;;12.50;1.00;;;;;;5062922;28;20438;-78
2021/08/17 00:11:03;;;;;;;10.20;4.60;;;12.50;1.00;;;;;;5060107;28;20421;-78
2021/08/17 00:13:32;;;;;;;8.13;3.77;;;12.40;1.00;;;;;;5073498;28;20413;-78
2021/08/17 00:16:02;;;;;;;6.93;3.33;;;12.40;1.00;;;;;;5075406;28;20242;-78
2021/08/17 00:18:32;;;;;;;13.23;3.37;;;12.30;1.00;;;;;;5074593;28;20390;-78
2021/08/17 00:21:02;;;;;;;5.37;3.30;;;12.30;1.00;;;;;;5063599;28;20917;-78
2021/08/17 00:23:32;;;;;;;13.63;4.13;;;12.30;1.00;;;;;;5068577;28;20421;-78
2021/08/17 00:26:02;;;;;;;6.90;3.30;;;12.10;1.00;;;;;;5055189;28;20876;-79
2021/08/17 00:28:32;;;;;;;14.23;3.83;;;12.20;1.00;;;;;;5056520;28;20936;-78
2021/08/17 00:31:02;;;;;;;12.47;4.23;;;12.00;1.00;;;;;;5070918;28;20522;-78
2021/08/17 00:36:32;;;;;;;8.47;4.47;;;11.90;1.00;;;;;;5075409;28;20439;-78
2021/08/17 00:39:02;;;;;;;12.27;4.10;;;11.90;1.00;;;;;;5074602;28;20412;-78
2021/08/17 00:41:39;;;;;;;11.93;3.77;;;11.80;1.00;;;;;;5073448;28;20409;-78
2021/08/17 00:44:15;;;;;;;12.83;3.57;;;11.70;1.00;;;;;;5073672;28;20417;-78
2021/08/17 00:46:41;;;;;;;9.50;3.80;;;11.60;1.00;;;;;;5073780;28;20508;-78
2021/08/17 00:49:08;;;;;;;4.40;2.83;;;11.60;1.00;;;;;;5073428;28;20437;-78
2021/08/17 00:51:38;;;;;;;7.93;4.00;;;11.60;1.00;;;;;;5074309;28;20851;-78
2021/08/17 00:54:21;;;;;;;13.23;3.70;;;11.50;1.00;;;;;;5074652;28;20396;-78
2021/08/17 00:56:48;;;;;;;13.50;3.37;;;11.50;1.00;;;;;;5061047;28;20885;-78
2021/08/17 00:59:14;;;;;;;12.87;3.43;;;11.70;1.00;;;;;;5062495;28;20410;-78
2021/08/17 01:01:41;;;;;;;5.20;3.00;;;11.40;1.00;;;;;;5072387;28;20431;-78
2021/08/17 01:04:20;;;;;;;9.67;3.70;;;12.10;1.00;;;;;;5073887;28;20413;-78
2021/08/17 01:06:50;;;;;;;16.03;4.00;;;11.30;1.00;;;;;;5073061;28;20485;-78
2021/08/17 01:09:26;;;;;;;7.50;3.33;;;11.30;1.00;;;;;;5054797;28;20421;-78
2021/08/17 01:11:59;;;;;;;6.97;3.93;;;11.30;1.00;;;;;;5073754;28;20423;-78
2021/08/17 01:14:25;;;;;;;10.03;3.67;;;11.40;1.00;;;;;;5054922;28;20551;-78
2021/08/17 01:17:02;;;;;;;6.53;3.20;;;11.50;1.00;;;;;;5054008;28;20449;-78
2021/08/17 01:19:50;;;;;;;9.83;3.30;;;11.40;1.00;;;;;;5060596;28;20188;-78
2021/08/17 01:22:33;;;;;;;12.57;4.13;;;11.50;1.00;;;;;;5067697;28;20405;-78
2021/08/17 01:25:19;;;;;;;5.90;3.73;;;11.70;1.00;;;;;;5054407;28;20426;-78
2021/08/17 01:27:50;;;;;;;8.37;2.97;;;11.70;1.00;;;;;;5060028;28;20629;-78
2021/08/17 01:30:18;;;;;;;8.53;3.83;;;11.70;1.00;;;;;;5064431;28;20413;-78
2021/08/17 01:32:48;;;;;;;9.73;3.60;;;11.70;1.00;;;;;;5071603;28;20425;-78
2021/08/17 01:35:14;;;;;;;13.20;3.10;;;11.70;1.00;;;;;;5053719;28;20537;-78
2021/08/17 01:37:40;;;;;;;7.53;4.07;;;11.70;1.00;;;;;;5059326;28;20423;-78
2021/08/17 01:40:10;;;;;;;7.13;3.20;;;11.70;1.00;;;;;;5062497;28;20757;-78
2021/08/17 01:42:37;;;;;;;5.73;3.50;;;11.70;1.00;;;;;;5064650;28;20912;-78
2021/08/17 01:45:03;;;;;;;6.97;3.70;;;11.70;1.00;;;;;;5067480;28;20422;-78
2021/08/17 01:47:31;;;;;;;7.50;3.60;;;11.70;1.00;;;;;;5064533;28;20485;-78
2021/08/17 01:49:58;;;;;;;4.47;2.67;;;;;;;;;;5053960;28;20433;-78
2021/08/17 01:52:24;;;;;;;9.43;3.20;;;11.70;1.00;;;;;;5063294;28;20422;-79
2021/08/17 01:54:50;;;;;;;433.93;132.30;;;12.10;1.00;;;;;;5068495;28;20808;-79
2021/08/17 01:57:15;;;;;;;5.90;2.87;;;11.60;1.00;;;;;;5068550;28;20179;-79
2021/08/17 01:59:41;;;;;;;103.47;34.97;;;11.60;1.00;;;;;;5057175;28;20192;-79
2021/08/17 02:02:08;;;;;;;11.50;3.70;;;11.60;1.00;;;;;;5069813;28;20176;-78
2021/08/17 02:04:37;;;;;;;10.43;3.53;;;13.10;1.00;;;;;;5053318;28;20168;-78
2021/08/17 02:07:03;;;;;;;10.03;3.87;;;11.60;1.00;;;;;;5056604;28;20418;-78
2021/08/17 02:10:08;;;;;;;9.57;3.60;;;11.70;1.00;;;;;;5058901;28;20886;-78
2021/08/17 02:16:00;;;;;;;9.97;3.70;;;11.70;1.00;;;;;;5061851;28;20475;-78
2021/08/17 02:18:35;;;;;;;13.67;3.20;;;11.80;1.00;;;;;;5073576;28;20401;-78
2021/08/17 02:21:02;;;;;;;16.00;3.57;;;11.80;1.00;;;;;;5060064;28;20924;-78
2021/08/17 02:23:29;;;;;;;5.93;3.57;;;11.90;1.00;;;;;;5053685;28;20467;-78
2021/08/17 02:26:02;;;;;;;8.07;3.70;;;11.90;1.00;;;;;;5061948;28;20512;-78
2021/08/17 02:28:28;;;;;;;9.53;3.53;;;11.90;1.00;;;;;;5061293;28;20426;-78
2021/08/17 02:31:02;;;;;;;7.37;3.97;;;12.00;1.00;;;;;;5053604;28;20422;-78
2021/08/17 02:33:50;;;;;;;6.20;3.70;;;12.00;1.00;;;;;;5053284;28;20163;-78
2021/08/17 02:36:20;;;;;;;9.63;3.70;;;12.00;1.00;;;;;;5053812;28;20537;-78
2021/08/17 02:38:56;;;;;;;5.57;3.70;;;12.00;1.00;;;;;;5066538;28;20413;-78
2021/08/17 02:41:26;;;;;;;9.17;3.33;;;12.00;1.00;;;;;;5064110;28;20465;-78
2021/08/17 02:44:02;;;;;;;8.53;4.03;;;12.10;1.00;;;;;;5053151;28;20398;-79
2021/08/17 02:46:55;;;;;;;6.80;4.00;;;12.10;1.00;;;;;;5053702;28;20410;-78
2021/08/17 02:49:21;;;;;;;9.53;3.33;;;12.00;1.00;;;;;;5059677;28;21026;-78
2021/08/17 02:51:56;;;;;;;6.20;3.87;;;12.00;1.00;;;;;;5072143;28;20392;-78
2021/08/17 02:54:44;;;;;;;7.10;3.50;;;12.00;1.00;;;;;;5073388;28;20285;-78
2021/08/17 02:57:27;;;;;;;9.40;3.50;;;11.90;1.00;;;;;;5070469;28;20416;-79
2021/08/17 03:00:03;;;;;;;9.07;3.80;;;11.90;1.00;;;;;;5060720;28;20772;-78
2021/08/17 03:02:38;;;;;;;18.20;3.77;;;11.80;1.00;;;;;;5067746;28;20915;-78
2021/08/17 03:05:14;;;;;;;6.10;3.57;;;11.80;1.00;;;;;;5076576;28;21007;-78
2021/08/17 03:08:03;;;;;;;12.43;4.20;;;11.70;1.00;;;;;;5076646;28;20412;-78
2021/08/17 03:11:19;;;;;;;12.30;4.27;;;11.80;1.00;;;;;;5076956;28;20390;-78
2021/08/17 03:13:50;;;;;;;10.30;4.27;;;11.70;1.00;;;;;;5071272;28;20512;-78
2021/08/17 03:16:55;;;;;;;9.23;4.13;;;11.60;1.00;;;;;;5076263;28;20532;-79
2021/08/17 03:19:26;;;;;;;11.07;4.40;;;11.60;1.00;;;;;;5059044;28;20424;-78
2021/08/17 03:21:56;;;;;;;8.40;4.30;;;11.60;1.00;;;;;;5074392;28;20789;-78
2021/08/17 03:24:56;;;;;;;7.53;3.47;;;11.50;1.00;;;;;;5068522;28;20903;-78
2021/08/17 03:27:21;;;;;;;5.37;3.50;;;11.40;1.00;;;;;;5067311;28;20413;-78
2021/08/17 03:30:15;;;;;;;7.80;4.17;;;11.40;1.00;;;;;;5074023;28;20423;-78
2021/08/17 03:32:41;;;;;;;8.60;3.97;;;11.20;1.00;;;;;;5074372;28;20218;-78
2021/08/17 03:38:33;;;;;;;23.73;4.33;;;11.20;1.00;;;;;;5056137;28;20481;-78
2021/08/17 03:41:08;;;;;;;7.97;4.53;;;11.20;1.00;;;;;;5066324;28;20424;-79
2021/08/17 03:43:56;;;;;;;9.00;4.60;;;11.20;1.00;;;;;;5074540;28;20413;-79
2021/08/17 03:46:22;;;;;;;8.43;3.87;;;11.10;1.00;;;;;;5074284;28;20460;-78
2021/08/17 03:48:47;;;;;;;9.97;4.03;;;11.20;1.00;;;;;;5075286;28;20472;-78
2021/08/17 03:51:14;;;;;;;11.13;4.20;;;11.20;1.00;;;;;;5067743;28;20624;-78
2021/08/17 03:53:44;;;;;;;8.87;4.40;;;11.10;1.00;;;;;;5068964;28;20225;-78
2021/08/17 03:56:43;;;;;;;12.73;4.20;;;11.10;1.00;;;;;;5075711;28;20444;-79
2021/08/17 03:59:26;;;;;;;5.90;3.63;;;11.00;1.00;;;;;;5075979;28;20743;-79
2021/08/17 04:02:14;;;;;;;12.93;4.50;;;11.00;1.00;;;;;;5075467;28;20792;-78
2021/08/17 04:04:45;;;;;;;11.73;3.83;;;10.90;1.00;;;;;;5065798;28;20410;-78
2021/08/17 04:07:26;;;;;;;9.40;5.03;;;10.90;1.00;;;;;;5070915;28;20913;-78
2021/08/17 04:09:51;;;;;;;9.83;4.20;;;10.80;1.00;;;;;;5055464;28;20897;-78
2021/08/17 04:12:26;;;;;;;11.80;4.20;;;10.80;1.00;;;;;;5067246;28;20426;-78
2021/08/17 04:15:14;;;;;;;8.90;4.30;;;10.80;1.00;;;;;;5068330;28;20222;-78
2021/08/17 04:17:44;;;;;;;7.50;4.20;;;10.80;1.00;;;;;;5064727;28;20452;-86
2021/08/17 04:20:15;;;;;;;9.20;4.50;;;10.80;1.00;;;;;;5057301;28;20466;-87
2021/08/17 04:22:50;;;;;;;15.53;4.90;;;10.70;1.00;;;;;;5055682;28;20472;-77
2021/08/17 04:25:26;;;;;;;10.90;4.50;;;10.70;1.00;;;;;;5056838;28;20901;-77
2021/08/17 04:28:08;;;;;;;13.83;5.03;;;10.70;1.00;;;;;;5074598;28;20425;-78
2021/08/17 04:30:44;;;;;;;13.83;5.20;;;10.70;1.00;;;;;;5066903;28;20403;-78
2021/08/17 04:33:20;;;;;;;15.50;4.50;;;10.70;1.00;;;;;;5065027;28;20416;-77
2021/08/17 04:36:13;;;;;;;7.40;3.57;;;10.60;1.00;;;;;;5071673;28;20461;-78
2021/08/17 04:38:44;;;;;;;10.33;4.60;;;10.60;1.00;;;;;;5072912;28;20410;-86
2021/08/17 04:41:44;;;;;;;8.23;4.47;;;10.60;1.00;;;;;;5073669;28;20409;-85
2021/08/17 04:44:32;;;;;;;21.13;4.93;;;10.60;1.00;;;;;;5071014;28;20422;-85
2021/08/17 04:47:32;;;;;;;17.90;5.00;;;10.60;1.00;;;;;;5054046;28;20410;-86
2021/08/17 04:50:08;;;;;;;13.53;5.07;;;10.60;1.00;;;;;;5074106;28;20468;-87
2021/08/17 04:52:34;;;;;;;12.47;5.07;;;10.60;1.00;;;;;;5073793;28;20416;-80
2021/08/17 04:55:00;;;;;;;8.90;5.00;;;10.60;1.00;;;;;;5075030;28;20460;-80
2021/08/17 04:57:26;;;;;;;17.53;5.40;;;10.60;1.00;;;;;;5074672;28;20393;-80
2021/08/17 04:59:51;;;;;;;9.60;4.83;;;10.70;1.00;;;;;;5057092;28;20289;-79
2021/08/17 05:02:20;;;;;;;15.20;5.53;;;10.70;1.00;;;;;;5057532;28;20168;-79
2021/08/17 05:04:45;;;;;;;10.70;5.10;;;10.80;1.00;;;;;;5052639;28;20685;-79
2021/08/17 05:07:11;;;;;;;10.30;5.67;;;10.80;1.00;;;;;;5053713;28;20437;-79
2021/08/17 05:09:37;;;;;;;17.70;5.60;;;10.80;1.00;;;;;;5066059;28;20508;-79
2021/08/17 05:12:08;;;;;;;20.40;6.00;;;11.60;1.00;;;;;;5073494;28;20175;-79
2021/08/17 05:14:34;;;;;;;19.67;5.67;;;10.90;1.00;;;;;;5064912;28;20199;-79
2021/08/17 05:16:59;;;;;;;13.50;6.00;;;11.50;1.00;;;;;;5067886;28;20932;-79
2021/08/17 05:19:26;;;;;;;14.90;6.63;;;11.20;1.00;;;;;;5070733;28;20179;-79
2021/08/17 05:21:56;;;;;;;14.23;6.10;;;11.30;1.00;;;;;;5063206;28;20203;-78
2021/08/17 05:24:32;;;;;;;19.10;6.27;;;11.30;1.00;;;;;;5053917;28;20437;-79
2021/08/17 05:27:14;;;;;;;13.80;5.73;;;11.60;1.00;;;;;;5054248;28;20760;-77
2021/08/17 05:29:40;;;;;;;14.50;6.03;;;11.60;1.00;;;;;;5068100;28;20787;-78
2021/08/17 05:32:08;;;;;;;18.43;6.57;;;11.90;1.00;;;;;;5088514;28;20429;-79
2021/08/17 05:34:38;;;;;;;22.60;7.70;;;12.10;1.00;;;;;;5066834;28;20480;-77
2021/08/17 05:37:08;;;;;;;17.60;6.20;;;12.10;1.00;;;;;;5074134;28;20888;-79
2021/08/17 05:39:38;;;;;;;12.83;6.27;;;12.40;1.00;;;;;;5065891;28;20429;-78
2021/08/17 05:42:14;;;;;;;16.20;6.67;;;12.50;1.00;;;;;;5060486;28;20588;-78
2021/08/17 05:44:45;;;;;;;10.40;6.23;;;12.70;1.00;;;;;;5055230;28;20430;-78
2021/08/17 05:47:14;;;;;;;18.63;7.10;;;13.00;1.00;;;;;;5058528;28;20433;-78
2021/08/17 05:49:44;;;;;;;13.13;6.70;;;13.30;1.00;;;;;;5072499;28;20843;-78
2021/08/17 05:52:14;;;;;;;18.30;7.50;;;13.40;1.00;;;;;;5071767;28;20429;-79
2021/08/17 05:54:44;;;;;;;15.27;5.80;;;13.70;1.00;;;;;;5060641;28;20449;-79
2021/08/17 05:57:14;;;;;;;17.43;6.30;;;13.90;1.00;;;;;;5062219;28;20437;-79
2021/08/17 05:59:44;;;;;;;10.67;6.20;;;13.90;1.00;;;;;;5068033;28;20421;-80
2021/08/17 06:02:20;;;;;;;11.67;5.80;;;14.00;1.00;;;;;;5053115;28;20757;-79
2021/08/17 06:04:45;;;;;;;12.60;6.60;;;14.00;1.00;;;;;;5078147;28;20925;-78
2021/08/17 06:07:17;;;;;;;14.83;7.13;;;14.30;1.00;;;;;;5074460;28;20448;-78
2021/08/17 06:09:45;;;;;;;15.20;6.23;;;14.60;1.00;;;;;;5062395;28;20505;-78
2021/08/17 06:12:11;;;;;;;14.90;6.77;;;14.60;1.00;;;;;;5058201;28;20453;-78
2021/08/17 06:14:38;;;;;;;14.77;6.40;;;14.80;1.00;;;;;;5061851;28;20514;-79
2021/08/17 06:17:05;;;;;;;11.83;6.77;;;14.80;1.00;;;;;;5072729;28;20420;-78
2021/08/17 06:19:30;;;;;;;13.17;6.63;;;14.90;1.00;;;;;;5072011;28;20931;-79
2021/08/17 06:21:56;;;;;;;15.67;7.00;;;;;;;;;;5068336;28;20395;-78
2021/08/17 06:24:22;;;;;;;14.47;6.50;;;15.00;1.00;;;;;;5063322;28;20176;-78
2021/08/17 06:26:48;;;;;;;18.13;7.20;;;15.10;1.00;;;;;;5055223;28;20815;-78
2021/08/17 06:29:15;;;;;;;13.47;6.77;;;15.20;1.00;;;;;;5055888;28;20176;-81
2021/08/17 06:31:44;;;;;;;14.73;6.60;;;15.30;1.00;;;;;;5068643;28;20186;-80
2021/08/17 06:34:10;;;;;;;16.43;7.20;;;15.40;1.00;;;;;;5070192;28;20790;-80
2021/08/17 06:36:36;;;;;;;21.87;6.60;;;15.40;1.00;;;;;;5064384;28;20404;-81
2021/08/17 06:39:15;;;;;;;21.70;7.83;;;15.60;1.00;;;;;;5057544;28;20533;-80
2021/08/17 06:41:56;;;;;;;14.87;6.77;;;15.80;1.00;;;;;;5085144;28;20408;-79
2021/08/17 06:44:26;;;;;;;14.40;7.03;;;15.80;1.00;;;;;;5096240;28;20407;-79
2021/08/17 06:46:52;;;;;;;12.03;6.33;;;15.80;1.00;;;;;;5087328;28;20487;-80
2021/08/17 06:49:17;;;;;;;14.73;7.40;;;15.80;1.00;;;;;;5075777;28;21014;-80
2021/08/17 06:51:43;;;;;;;17.73;6.43;;;15.90;1.00;;;;;;5075981;28;20167;-79
2021/08/17 06:54:09;;;;;;;14.30;6.70;;;16.00;1.00;;;;;;5076519;28;20191;-82
2021/08/17 06:56:34;;;;;;;17.17;6.53;;;16.10;1.00;;;;;;5074456;28;20171;-82
2021/08/17 06:59:00;;;;;;;14.33;6.23;;;16.10;1.00;;;;;;5075637;28;20163;-83
2021/08/17 07:01:25;;;;;;;13.60;6.93;;;16.20;1.00;;;;;;5074428;28;20163;-78
2021/08/17 07:03:51;;;;;;;14.00;6.80;;;16.20;1.00;;;;;;5068131;28;20179;-78
2021/08/17 07:06:17;;;;;;;11.13;6.53;;;16.20;1.00;;;;;;5084345;28;20174;-78
2021/08/17 07:08:42;;;;;;;14.53;6.90;;;16.40;1.00;;;;;;5080028;28;20175;-78
2021/08/17 07:11:08;;;;;;;11.97;6.80;;;16.40;1.00;;;;;;5075789;28;20279;-78
2021/08/17 07:13:34;;;;;;;12.37;6.47;;;16.40;1.00;;;;;;5072456;28;20172;-78
2021/08/17 07:16:00;;;;;;;13.37;6.47;;;16.40;1.00;;;;;;5055836;28;20442;-78
2021/08/17 07:18:25;;;;;;;15.83;6.70;;;16.50;1.00;;;;;;5075190;28;20417;-78
2021/08/17 07:20:52;;;;;;;16.97;7.53;;;16.40;1.00;;;;;;5073508;28;20207;-78
2021/08/17 07:23:20;;;;;;;18.70;6.87;;;16.40;1.00;;;;;;5058425;28;20222;-78
2021/08/17 07:25:46;;;;;;;11.97;6.50;;;16.40;1.00;;;;;;5075562;28;20390;-78
2021/08/17 07:28:12;;;;;;;27.00;7.20;;;16.50;1.00;;;;;;5070881;28;20797;-78
2021/08/17 07:30:41;;;;;;;14.37;7.17;;;16.60;1.00;;;;;;5065889;28;20222;-79
2021/08/17 07:33:07;;;;;;;13.00;7.20;;;16.60;1.00;;;;;;5075051;28;20392;-79
2021/08/17 07:35:33;;;;;;;12.70;7.00;;;16.70;1.00;;;;;;5069327;28;20529;-79
2021/08/17 07:38:00;;;;;;;11.33;6.47;;;16.90;1.00;;;;;;5068248;28;20911;-78
2021/08/17 07:40:26;;;;;;;20.90;7.00;;;17.00;1.00;;;;;;5067621;28;20165;-79
2021/08/17 07:42:52;;;;;;;15.63;7.27;;;16.90;1.00;;;;;;5074328;28;20714;-78
2021/08/17 07:45:18;;;;;;;14.80;7.23;;;16.80;1.00;;;;;;5069233;28;20179;-78
2021/08/17 07:47:44;;;;;;;15.80;7.47;;;16.80;1.00;;;;;;5053863;28;20398;-79
2021/08/17 07:50:12;;;;;;;14.53;7.47;;;16.90;1.00;;;;;;5054946;28;20764;-78
2021/08/17 07:52:38;;;;;;;16.27;8.20;;;17.00;1.00;;;;;;5055128;28;20377;-78
2021/08/17 07:55:09;;;;;;;11.00;6.73;;;17.10;1.00;;;;;;5054687;28;20466;-78
2021/08/17 07:57:35;;;;;;;15.43;7.37;;;17.10;1.00;;;;;;5053706;28;20465;-79
2021/08/17 08:00:00;;;;;;;9.43;6.20;;;17.40;1.00;;;;;;5055037;28;20415;-79
2021/08/17 08:02:26;;;;;;;14.90;7.50;;;17.60;1.00;;;;;;5054941;28;20165;-79
2021/08/17 08:04:52;;;;;;;14.97;6.50;;;17.60;1.00;;;;;;5054528;28;20170;-78
2021/08/17 08:07:17;;;;;;;16.20;7.40;;;17.80;1.00;;;;;;5058788;28;20174;-78
2021/08/17 08:09:43;;;;;;;14.07;7.20;;;17.80;1.00;;;;;;5074847;28;20198;-78
2021/08/17 08:12:12;;;;;;;14.60;8.10;;;17.80;1.00;;;;;;5074734;28;20171;-78
2021/08/17 08:14:44;;;;;;;17.73;8.27;;;17.60;1.00;;;;;;5074372;28;20197;-78
2021/08/17 08:17:10;;;;;;;20.77;7.90;;;17.60;1.00;;;;;;5073755;28;20415;-78
2021/08/17 08:19:36;;;;;;;14.90;7.57;;;17.60;1.00;;;;;;5069391;28;20443;-79
2021/08/17 08:22:06;;;;;;;16.10;7.60;;;17.70;1.00;;;;;;5062271;28;20184;-78
2021/08/17 08:24:32;;;;;;;14.30;7.40;;;17.70;1.00;;;;;;5063912;28;20409;-78
2021/08/17 08:26:58;;;;;;;16.17;6.97;;;17.90;1.00;;;;;;5074542;28;20834;-83
2021/08/17 08:29:24;;;;;;;14.97;8.00;;;17.90;1.00;;;;;;5073134;28;20426;-78
2021/08/17 08:31:49;;;;;;;15.57;7.90;;;18.10;1.00;;;;;;5074295;28;20516;-79
2021/08/17 08:34:15;;;;;;;18.43;7.27;;;18.10;1.00;;;;;;5065459;28;20173;-78
2021/08/17 08:36:41;;;;;;;17.13;8.40;;;18.10;1.00;;;;;;5068239;28;20226;-78
2021/08/17 08:39:07;;;;;;;15.60;8.00;;;;;;;;;;5073022;28;20243;-78
2021/08/17 08:41:33;;;;;;;24.13;8.33;;;18.40;1.00;;;;;;5072868;28;20181;-78
2021/08/17 08:43:58;;;;;;;20.67;7.33;;;18.60;1.00;;;;;;5074026;28;20769;-78
2021/08/17 08:46:25;;;;;;;20.40;8.57;;;18.70;1.00;;;;;;5054271;28;20474;-78
2021/08/17 08:48:52;;;;;;;17.17;8.20;;;18.90;1.00;;;;;;5053707;28;20191;-78
2021/08/17 08:51:21;;;;;;;13.80;7.80;;;19.00;1.00;;;;;;5072541;28;20423;-78
2021/08/17 08:53:47;;;;;;;16.40;7.77;;;;;;;;;;5055473;28;20519;-78
2021/08/17 08:56:13;;;;;;;17.07;8.20;;;;;;;;;;5071509;28;20441;-78
2021/08/17 08:58:41;;;;;;;15.20;7.73;;;18.80;1.00;;;;;;5073240;28;20401;-78
2021/08/17 09:01:09;;;;;;;17.60;7.77;;;18.80;1.00;;;;;;5073277;28;20416;-78
2021/08/17 09:03:49;;;;;;;17.03;8.13;;;18.90;1.00;;;;;;5073280;28;20454;-78
2021/08/17 09:06:19;;;;;;;13.63;7.57;;;19.00;1.00;;;;;;5072184;28;20436;-78
2021/08/17 09:08:45;;;;;;;14.83;7.73;;;19.10;1.00;;;;;;5069303;28;20400;-78
2021/08/17 09:11:19;;;;;;;20.60;8.63;;;19.10;1.00;;;;;;5073545;28;20428;-78
2021/08/17 09:13:45;;;;;;;20.97;8.30;;;19.10;1.00;;;;;;5073279;28;20857;-78
2021/08/17 09:16:29;;;;;;;14.97;8.20;;;19.10;1.00;;;;;;5055311;28;20464;-79
2021/08/17 09:18:56;;;;;;;14.17;7.70;;;;;;;;;;5056559;28;20387;-81
2021/08/17 09:21:38;;;;;;;17.63;8.40;;;19.10;1.00;;;;;;5065850;28;20399;-81
2021/08/17 09:24:26;;;;;;;12.93;7.83;;;19.20;1.00;;;;;;5053652;28;20698;-82
2021/08/17 09:26:57;;;;;;;15.60;7.83;;;19.20;1.00;;;;;;5052104;28;20420;-82
2021/08/17 09:29:29;;;;;;;15.00;7.80;;;19.20;1.00;;;;;;5067655;28;20408;-81
2021/08/17 09:31:58;;;;;;;17.40;9.10;;;19.40;1.00;;;;;;5073389;28;20443;-81
2021/08/17 09:34:35;;;;;;;13.40;7.77;;;19.50;1.00;;;;;;5067217;28;20441;-79
2021/08/17 09:37:11;;;;;;;20.10;7.83;;;19.50;1.00;;;;;;5060203;28;20414;-78
2021/08/17 09:39:59;;;;;;;14.83;8.30;;;19.40;1.00;;;;;;5053774;28;20430;-78
2021/08/17 09:43:23;;;;;;;12.87;7.27;;;19.30;1.00;;;;;;5053660;28;20404;-78
2021/08/17 09:45:50;;;;;;;15.07;8.03;;;19.20;1.00;;;;;;5011744;28;20410;-78
2021/08/17 09:48:35;;;;;;;13.97;8.37;;;19.30;1.00;;;;;;4995544;28;20446;-78
2021/08/17 09:51:02;;;;;;;18.50;8.40;;;19.40;1.00;;;;;;5012405;28;20436;-87
2021/08/17 09:53:38;;;;;;;14.53;8.10;;;;;;;;;;5012809;28;20457;-87
2021/08/17 10:02:56;;;;;;;22.20;8.50;;;20.10;1.00;;;;;;5032176;28;20582;-87
2021/08/17 10:05:39;;;;;;;17.73;8.30;;;20.20;1.00;;;;;;5032193;28;20394;-88
2021/08/17 10:08:08;;;;;;;16.03;7.70;;;19.90;1.00;;;;;;5032133;28;20458;-87
2021/08/17 10:10:34;;;;;;;16.33;7.80;;;20.00;1.00;;;;;;4995006;28;20471;-83
2021/08/17 10:13:21;;;;;;;15.70;7.07;;;19.90;1.00;;;;;;4995230;28;20497;-83
2021/08/17 10:16:02;;;;;;;19.87;8.23;;;20.00;1.00;;;;;;5002893;28;20221;-83
2021/08/17 10:18:41;;;;;;;17.57;8.70;;;20.10;1.00;;;;;;5053340;28;20777;-83
2021/08/17 10:21:16;;;;;;;11.53;7.20;;;20.30;1.00;;;;;;5067883;28;20860;-83
2021/08/17 10:23:44;;;;;;;16.30;7.40;;;20.30;1.00;;;;;;5054566;28;20959;-83
2021/08/17 10:26:27;;;;;;;16.53;8.20;;;20.30;1.00;;;;;;5072103;28;20418;-81
2021/08/17 10:28:53;;;;;;;13.20;6.70;;;20.30;1.00;;;;;;5063405;28;20852;-78
2021/08/17 10:31:22;;;;;;;17.47;7.80;;;20.20;1.00;;;;;;5071651;28;20424;-78
2021/08/17 10:34:08;;;;;;;16.80;7.60;;;20.00;1.00;;;;;;5073412;28;20508;-78
2021/08/17 10:36:37;;;;;;;14.63;8.23;;;19.90;1.00;;;;;;5073249;28;20445;-78
2021/08/17 10:39:17;;;;;;;10.93;6.97;;;19.90;1.00;;;;;;5073484;28;20389;-78
2021/08/17 10:42:19;;;;;;;14.33;7.80;;;19.90;1.00;;;;;;5068079;28;20436;-78
2021/08/17 10:44:45;;;;;;;15.20;6.33;;;19.80;1.00;;;;;;5058860;28;20484;-78
2021/08/17 10:47:12;;;;;;;14.30;7.23;;;19.80;1.00;;;;;;5065977;28;21001;-78
2021/08/17 10:49:41;;;;;;;19.67;7.73;;;19.80;1.00;;;;;;5061111;28;20206;-78
2021/08/17 10:52:09;;;;;;;13.90;7.07;;;19.70;1.00;;;;;;5060460;28;20395;-78
2021/08/17 10:54:36;;;;;;;15.00;7.57;;;19.80;1.00;;;;;;5059534;28;20436;-78
2021/08/17 10:57:21;;;;;;;13.93;7.70;;;20.10;1.00;;;;;;5066810;28;20420;-78
2021/08/17 10:59:49;;;;;;;15.50;7.00;;;20.30;1.00;;;;;;5071602;28;20464;-78
2021/08/17 11:02:20;;;;;;;14.50;7.20;;;20.50;1.00;;;;;;5070687;28;20437;-78
2021/08/17 11:04:47;;;;;;;14.03;7.20;;;20.80;1.00;;;;;;5071771;28;20463;-78
2021/08/17 11:07:26;;;;;;;14.40;6.77;;;20.80;1.00;;;;;;5067049;28;20381;-78
2021/08/17 11:09:53;;;;;;;11.47;6.63;;;20.80;1.00;;;;;;5064435;28;20425;-78
2021/08/17 11:12:19;;;;;;;13.30;6.90;;;20.80;1.00;;;;;;5071849;28;20512;-78
2021/08/17 11:14:47;;;;;;;16.70;7.73;;;20.70;1.00;;;;;;5071557;28;20473;-78
2021/08/17 11:17:15;;;;;;;17.80;6.80;;;20.70;1.00;;;;;;5071461;28;20623;-78
2021/08/17 11:19:47;;;;;;;12.23;6.40;;;20.90;1.00;;;;;;5070628;28;20495;-78
2021/08/17 11:22:25;;;;;;;17.33;7.00;;;20.90;1.00;;;;;;5064982;28;20419;-78
2021/08/17 11:24:55;;;;;;;13.60;7.60;;;20.90;1.00;;;;;;5066889;28;20525;-78
2021/08/17 11:27:35;;;;;;;14.07;7.23;;;21.00;1.00;;;;;;5075253;28;20471;-78
2021/08/17 11:30:07;;;;;;;13.47;7.20;;;21.20;1.00;;;;;;5071383;28;20412;-78
2021/08/17 11:32:58;;;;;;;13.73;6.77;;;21.30;1.00;;;;;;5072411;28;20826;-78
2021/08/17 11:35:26;;;;;;;11.13;6.37;;;21.30;1.00;;;;;;5049648;28;20473;-78
2021/08/17 11:37:56;;;;;;;12.50;6.87;;;21.30;1.00;;;;;;5074801;28;20410;-78
2021/08/17 11:40:23;;;;;;;11.97;6.50;;;21.20;1.00;;;;;;5057919;28;20842;-78
2021/08/17 11:42:51;;;;;;;11.23;6.33;;;21.30;1.00;;;;;;5074920;28;20918;-78
2021/08/17 11:45:22;;;;;;;9.00;5.17;;;21.30;1.00;;;;;;5075495;28;20479;-78
2021/08/17 11:47:49;;;;;;;11.20;6.20;;;21.40;1.00;;;;;;5072683;28;20418;-78
2021/08/17 11:50:18;;;;;;;11.80;5.70;;;21.40;1.00;;;;;;5074598;28;20441;-78
2021/08/17 11:52:44;;;;;;;10.20;5.80;;;21.50;1.00;;;;;;5074965;28;20457;-78
2021/08/17 11:55:18;;;;;;;9.53;5.83;;;21.50;1.00;;;;;;5062586;28;20432;-78
2021/08/17 11:57:48;;;;;;;8.40;5.20;;;21.60;1.00;;;;;;5067086;28;20405;-78
2021/08/17 12:00:19;;;;;;;12.63;5.50;;;21.70;1.00;;;;;;5074380;28;20431;-78
2021/08/17 12:02:51;;;;;;;11.87;5.90;;;21.90;1.00;;;;;;5074583;28;20448;-78
2021/08/17 12:05:19;;;;;;;9.80;5.40;;;22.00;1.00;;;;;;5055803;28;20428;-78
2021/08/17 12:07:47;;;;;;;9.83;6.10;;;22.10;1.00;;;;;;5054366;28;20466;-78
2021/08/17 12:10:24;;;;;;;13.10;5.73;;;22.10;1.00;;;;;;5055852;28;20397;-78
2021/08/17 12:13:05;;;;;;;11.10;6.23;;;22.20;1.00;;;;;;5073105;28;20943;-78
2021/08/17 12:15:35;;;;;;;10.53;6.00;;;22.00;1.00;;;;;;5061657;28;20521;-78
2021/08/17 12:18:12;;;;;;;9.97;6.03;;;22.00;1.00;;;;;;5055746;28;20400;-77
2021/08/17 12:20:41;;;;;;;8.43;5.10;;;21.70;1.00;;;;;;5066286;28;20444;-78
2021/08/17 12:23:27;;;;;;;11.53;6.03;;;21.60;1.00;;;;;;5070689;28;20864;-78
2021/08/17 12:26:11;;;;;;;11.33;6.00;;;21.70;1.00;;;;;;5072428;28;20469;-78
2021/08/17 12:28:37;;;;;;;13.07;5.57;;;21.70;1.00;;;;;;5076283;28;20418;-78
2021/08/17 12:31:16;;;;;;;12.17;6.20;;;21.70;1.00;;;;;;5074494;28;20896;-77
2021/08/17 12:34:05;;;;;;;8.10;5.20;;;21.80;1.00;;;;;;5060138;28;20456;-77
2021/08/17 12:36:40;;;;;;;9.60;6.00;;;21.70;1.00;;;;;;4973024;28;20472;-77
2021/08/17 12:39:23;;;;;;;7.83;4.90;;;21.80;1.00;;;;;;4979274;28;20564;-77
2021/08/17 12:41:52;;;;;;;7.83;4.60;;;21.70;1.00;;;;;;4987065;28;20592;-78
2021/08/17 12:44:19;;;;;;;8.30;4.73;;;21.60;1.00;;;;;;4978147;28;20459;-78
2021/08/17 12:47:02;;;;;;;11.27;4.90;;;21.20;1.00;;;;;;4980577;28;20427;-79
2021/08/17 12:49:48;;;;;;;5.80;4.60;;;21.00;1.00;;;;;;4986183;28;20460;-78
2021/08/17 12:52:30;;;;;;;8.13;4.60;;;21.00;1.00;;;;;;4987952;28;20434;-78
2021/08/17 12:55:10;;;;;;;8.47;4.87;;;21.00;1.00;;;;;;4972862;28;20468;-78
2021/08/17 12:57:56;;;;;;;13.57;5.03;;;20.90;1.00;;;;;;4991851;28;20437;-79
2021/08/17 13:00:24;;;;;;;9.33;4.33;;;20.80;1.00;;;;;;4991911;28;20468;-78
2021/08/17 13:02:50;;;;;;;8.50;4.50;;;20.80;1.00;;;;;;4975272;28;20397;-79
2021/08/17 13:05:18;;;;;;;22.40;4.40;;;20.80;1.00;;;;;;4991498;28;20943;-78
2021/08/17 13:07:44;;;;;;;6.60;4.07;;;20.90;1.00;;;;;;4991241;28;20436;-78
2021/08/17 13:10:13;;;;;;;8.27;4.37;;;20.90;1.00;;;;;;4974470;28;20452;-78
2021/08/17 13:12:39;;;;;;;8.43;4.80;;;;;;;;;;4991451;28;20454;-77
2021/08/17 13:15:09;;;;;;;7.30;4.57;;;20.90;1.00;;;;;;5070036;28;20952;-78
2021/08/17 13:17:35;;;;;;;8.20;3.83;;;20.70;1.00;;;;;;5061831;28;20925;-77
2021/08/17 13:20:01;;;;;;;8.10;4.50;;;20.70;1.00;;;;;;5061797;28;20427;-77
2021/08/17 13:22:27;;;;;;;10.40;4.60;;;20.60;1.00;;;;;;5087550;28;20419;-77
2021/08/17 13:24:53;;;;;;;8.30;4.20;;;20.70;1.00;;;;;;5073323;28;20509;-77
2021/08/17 13:27:19;;;;;;;9.90;4.10;;;20.60;1.00;;;;;;5073238;28;20478;-78
2021/08/17 13:29:45;;;;;;;6.80;4.13;;;20.50;1.00;;;;;;5073283;28;20453;-79
2021/08/17 13:32:11;;;;;;;10.40;5.13;;;20.70;1.00;;;;;;5072026;28;20420;-78
2021/08/17 13:34:37;;;;;;;9.90;4.93;;;;;;;;;;5068616;28;20465;-79